Aviation Digital Data Service (ADDS)

Output produced by TAFs form (2350 UTC 18 July 2018)
found at http://www.aviationweather.gov/adds/tafs/
 
RJCB 182300Z VRB02KT 3200 -DZ BR FEW002 SCT003 BKN004 16/15 Q1013
TAF RJCB 182309Z 1900/2006 15007KT 9999 FEW008 SCT015 
     TEMPO 1900/1903 3000 -DZ BR FEW003 BKN005 
     BECMG 1909/1911 05003KT 
     TEMPO 1909/1912 3000 BR FEW002 BKN005 
     TEMPO 1912/2000 0700 FG VV001 
     TEMPO 2000/2003 FEW003 BKN008